sensor_id;sensor_type;location;lat;lon;timestamp;pressure;altitude;pressure_sealevel;temperature;humidity
28456;BME280;15682;56.742;38.866;2023-04-03T00:01:39;99320.0;;;6.1;92.9
28456;BME280;15682;56.742;38.866;2023-04-03T00:03:39;99320.0;;;6.1;92.9
28456;BME280;15682;56.742;38.866;2023-04-03T00:05:39;99320.0;;;6.1;92.7
28456;BME280;15682;56.742;38.866;2023-04-03T00:07:39;99320.0;;;6.1;92.7
28456;BME280;15682;56.742;38.866;2023-04-03T00:09:39;99320.0;;;6.1;92.7
28456;BME280;15682;56.742;38.866;2023-04-03T00:11:39;99320.0;;;6.0;92.7
28456;BME280;15682;56.742;38.866;2023-04-03T00:13:40;99320.0;;;6.0;92.7
28456;BME280;15682;56.742;38.866;2023-04-03T00:15:40;99330.0;;;6.0;93.2
28456;BME280;15682;56.742;38.866;2023-04-03T00:17:39;99330.0;;;6.0;93.2
28456;BME280;15682;56.742;38.866;2023-04-03T00:19:39;99330.0;;;6.0;93.2
28456;BME280;15682;56.742;38.866;2023-04-03T00:21:40;99330.0;;;6.1;93.2
28456;BME280;15682;56.742;38.866;2023-04-03T00:23:40;99330.0;;;6.1;93.2
28456;BME280;15682;56.742;38.866;2023-04-03T00:25:40;99330.0;;;6.1;93.2
28456;BME280;15682;56.742;38.866;2023-04-03T00:27:40;99330.0;;;6.1;93.2
28456;BME280;15682;56.742;38.866;2023-04-03T00:29:40;99330.0;;;6.1;93.2
28456;BME280;15682;56.742;38.866;2023-04-03T00:31:40;99340.0;;;6.1;93.2
28456;BME280;15682;56.742;38.866;2023-04-03T00:33:40;99340.0;;;6.1;93.2
28456;BME280;15682;56.742;38.866;2023-04-03T00:35:40;99340.0;;;6.1;92.6
28456;BME280;15682;56.742;38.866;2023-04-03T00:37:40;99340.0;;;6.1;92.6
28456;BME280;15682;56.742;38.866;2023-04-03T00:39:40;99340.0;;;6.1;92.6
28456;BME280;15682;56.742;38.866;2023-04-03T00:41:40;99340.0;;;6.1;92.6
28456;BME280;15682;56.742;38.866;2023-04-03T00:43:40;99340.0;;;6.1;92.6
28456;BME280;15682;56.742;38.866;2023-04-03T00:45:42;99340.0;;;6.1;92.6
28456;BME280;15682;56.742;38.866;2023-04-03T00:47:41;99340.0;;;6.1;92.6
28456;BME280;15682;56.742;38.866;2023-04-03T00:49:41;99340.0;;;6.1;92.6
28456;BME280;15682;56.742;38.866;2023-04-03T00:51:40;99340.0;;;6.1;92.6
28456;BME280;15682;56.742;38.866;2023-04-03T00:53:44;99340.0;;;6.1;92.6
28456;BME280;15682;56.742;38.866;2023-04-03T00:55:42;99340.0;;;6.1;92.3
28456;BME280;15682;56.742;38.866;2023-04-03T00:57:41;99340.0;;;6.1;92.3
28456;BME280;15682;56.742;38.866;2023-04-03T00:59:44;99340.0;;;6.1;92.1
28456;BME280;15682;56.742;38.866;2023-04-03T01:01:42;99340.0;;;6.1;92.1
28456;BME280;15682;56.742;38.866;2023-04-03T01:03:41;99340.0;;;6.1;92.1
28456;BME280;15682;56.742;38.866;2023-04-03T01:05:41;99340.0;;;6.1;92.1
28456;BME280;15682;56.742;38.866;2023-04-03T01:07:41;99340.0;;;6.1;92.1
28456;BME280;15682;56.742;38.866;2023-04-03T01:09:42;99340.0;;;6.1;92.1
28456;BME280;15682;56.742;38.866;2023-04-03T01:11:41;99340.0;;;6.1;92.1
28456;BME280;15682;56.742;38.866;2023-04-03T01:13:41;99340.0;;;6.1;92.1
28456;BME280;15682;56.742;38.866;2023-04-03T01:15:41;99340.0;;;6.1;91.9
28456;BME280;15682;56.742;38.866;2023-04-03T01:17:44;99340.0;;;6.1;91.9
28456;BME280;15682;56.742;38.866;2023-04-03T01:19:44;99340.0;;;6.1;91.9
28456;BME280;15682;56.742;38.866;2023-04-03T01:21:57;99340.0;;;6.2;91.9
28456;BME280;15682;56.742;38.866;2023-04-03T01:23:54;99340.0;;;6.2;91.9
28456;BME280;15682;56.742;38.866;2023-04-03T01:25:44;99340.0;;;6.2;92.3
28456;BME280;15682;56.742;38.866;2023-04-03T01:27:42;99340.0;;;6.2;92.3
28456;BME280;15682;56.742;38.866;2023-04-03T01:29:42;99340.0;;;6.2;91.4
28456;BME280;15682;56.742;38.866;2023-04-03T01:31:46;99340.0;;;6.3;91.4
28456;BME280;15682;56.742;38.866;2023-04-03T01:33:42;99340.0;;;6.3;91.4
28456;BME280;15682;56.742;38.866;2023-04-03T01:35:42;99340.0;;;6.3;91.3
28456;BME280;15682;56.742;38.866;2023-04-03T01:37:42;99340.0;;;6.3;91.3
28456;BME280;15682;56.742;38.866;2023-04-03T01:39:42;99340.0;;;6.3;91.3
28456;BME280;15682;56.742;38.866;2023-04-03T01:41:42;99340.0;;;6.3;91.3
28456;BME280;15682;56.742;38.866;2023-04-03T01:43:42;99340.0;;;6.3;92.1
28456;BME280;15682;56.742;38.866;2023-04-03T01:45:42;99340.0;;;6.2;91.7
28456;BME280;15682;56.742;38.866;2023-04-03T01:47:42;99340.0;;;6.2;91.7
28456;BME280;15682;56.742;38.866;2023-04-03T01:49:42;99340.0;;;6.2;91.7
28456;BME280;15682;56.742;38.866;2023-04-03T01:51:42;99350.0;;;6.1;91.7
28456;BME280;15682;56.742;38.866;2023-04-03T01:53:42;99350.0;;;6.1;91.7
28456;BME280;15682;56.742;38.866;2023-04-03T01:55:43;99350.0;;;6.1;92.5
28456;BME280;15682;56.742;38.866;2023-04-03T01:57:43;99350.0;;;6.1;92.5
28456;BME280;15682;56.742;38.866;2023-04-03T01:59:43;99350.0;;;6.1;92.5
28456;BME280;15682;56.742;38.866;2023-04-03T02:01:43;99350.0;;;6.0;92.8
28456;BME280;15682;56.742;38.866;2023-04-03T02:03:43;99350.0;;;6.0;92.8
28456;BME280;15682;56.742;38.866;2023-04-03T02:05:43;99350.0;;;6.0;92.8
28456;BME280;15682;56.742;38.866;2023-04-03T02:07:43;99350.0;;;6.0;92.8
28456;BME280;15682;56.742;38.866;2023-04-03T02:09:43;99350.0;;;6.0;92.8
28456;BME280;15682;56.742;38.866;2023-04-03T02:11:43;99360.0;;;6.0;92.8
28456;BME280;15682;56.742;38.866;2023-04-03T02:13:43;99360.0;;;6.0;92.8
28456;BME280;15682;56.742;38.866;2023-04-03T02:15:43;99360.0;;;6.0;92.3
28456;BME280;15682;56.742;38.866;2023-04-03T02:17:44;99360.0;;;6.0;92.8
28456;BME280;15682;56.742;38.866;2023-04-03T02:19:43;99360.0;;;6.0;92.8
28456;BME280;15682;56.742;38.866;2023-04-03T02:21:43;99360.0;;;6.0;92.8
28456;BME280;15682;56.742;38.866;2023-04-03T02:23:43;99360.0;;;6.0;92.8
28456;BME280;15682;56.742;38.866;2023-04-03T02:25:43;99360.0;;;6.0;92.4
28456;BME280;15682;56.742;38.866;2023-04-03T02:27:43;99360.0;;;6.0;92.4
28456;BME280;15682;56.742;38.866;2023-04-03T02:29:44;99370.0;;;6.0;92.4
28456;BME280;15682;56.742;38.866;2023-04-03T02:31:44;99370.0;;;6.0;92.4
28456;BME280;15682;56.742;38.866;2023-04-03T02:33:44;99370.0;;;6.0;92.4
28456;BME280;15682;56.742;38.866;2023-04-03T02:35:44;99370.0;;;6.0;92.8
28456;BME280;15682;56.742;38.866;2023-04-03T02:37:44;99370.0;;;6.0;92.8
28456;BME280;15682;56.742;38.866;2023-04-03T02:39:44;99370.0;;;6.0;92.8
28456;BME280;15682;56.742;38.866;2023-04-03T02:41:44;99370.0;;;6.0;92.8
28456;BME280;15682;56.742;38.866;2023-04-03T02:43:44;99370.0;;;6.0;92.8
28456;BME280;15682;56.742;38.866;2023-04-03T02:45:44;99370.0;;;6.0;92.8
28456;BME280;15682;56.742;38.866;2023-04-03T02:47:44;99370.0;;;5.9;92.8
28456;BME280;15682;56.742;38.866;2023-04-03T02:49:44;99370.0;;;5.9;92.8
28456;BME280;15682;56.742;38.866;2023-04-03T02:51:44;99370.0;;;5.9;92.8
28456;BME280;15682;56.742;38.866;2023-04-03T02:53:44;99380.0;;;5.9;92.8
28456;BME280;15682;56.742;38.866;2023-04-03T02:55:45;99380.0;;;5.9;92.6
28456;BME280;15682;56.742;38.866;2023-04-03T02:57:44;99380.0;;;5.9;92.6
28456;BME280;15682;56.742;38.866;2023-04-03T02:59:45;99380.0;;;5.9;92.6
28456;BME280;15682;56.742;38.866;2023-04-03T03:01:45;99380.0;;;6.0;92.6
28456;BME280;15682;56.742;38.866;2023-04-03T03:03:45;99380.0;;;6.1;92.1
28456;BME280;15682;56.742;38.866;2023-04-03T03:05:45;99380.0;;;6.1;92.4
28456;BME280;15682;56.742;38.866;2023-04-03T03:07:45;99380.0;;;6.1;92.4
28456;BME280;15682;56.742;38.866;2023-04-03T03:09:45;99380.0;;;6.1;92.4
28456;BME280;15682;56.742;38.866;2023-04-03T03:11:45;99380.0;;;6.1;92.4
28456;BME280;15682;56.742;38.866;2023-04-03T03:13:45;99380.0;;;6.1;92.4
28456;BME280;15682;56.742;38.866;2023-04-03T03:15:45;99380.0;;;6.1;92.1
28456;BME280;15682;56.742;38.866;2023-04-03T03:17:45;99380.0;;;6.1;92.1
28456;BME280;15682;56.742;38.866;2023-04-03T03:19:45;99380.0;;;6.1;92.1
28456;BME280;15682;56.742;38.866;2023-04-03T03:21:45;99380.0;;;6.2;92.1
28456;BME280;15682;56.742;38.866;2023-04-03T03:23:46;99380.0;;;6.2;92.1
28456;BME280;15682;56.742;38.866;2023-04-03T03:25:46;99380.0;;;6.2;91.4
28456;BME280;15682;56.742;38.866;2023-04-03T03:27:46;99380.0;;;6.2;91.4
28456;BME280;15682;56.742;38.866;2023-04-03T03:29:46;99380.0;;;6.2;91.4
28456;BME280;15682;56.742;38.866;2023-04-03T03:31:46;99380.0;;;6.3;91.4
28456;BME280;15682;56.742;38.866;2023-04-03T03:33:46;99380.0;;;6.3;91.4
28456;BME280;15682;56.742;38.866;2023-04-03T03:35:46;99380.0;;;6.3;91.5
28456;BME280;15682;56.742;38.866;2023-04-03T03:37:46;99390.0;;;6.3;91.5
28456;BME280;15682;56.742;38.866;2023-04-03T03:39:46;99390.0;;;6.3;91.5
28456;BME280;15682;56.742;38.866;2023-04-03T03:41:46;99390.0;;;6.4;90.8
28456;BME280;15682;56.742;38.866;2023-04-03T03:43:46;99390.0;;;6.5;90.8
28456;BME280;15682;56.742;38.866;2023-04-03T03:45:50;99390.0;;;6.5;90.7
28456;BME280;15682;56.742;38.866;2023-04-03T03:47:47;99390.0;;;6.5;90.7
28456;BME280;15682;56.742;38.866;2023-04-03T03:49:47;99400.0;;;6.5;90.7
28456;BME280;15682;56.742;38.866;2023-04-03T03:51:47;99400.0;;;6.6;90.7
28456;BME280;15682;56.742;38.866;2023-04-03T03:53:47;99400.0;;;6.6;90.7
28456;BME280;15682;56.742;38.866;2023-04-03T03:55:47;99400.0;;;6.6;90.6
28456;BME280;15682;56.742;38.866;2023-04-03T03:57:47;99400.0;;;6.6;90.1
28456;BME280;15682;56.742;38.866;2023-04-03T03:59:47;99400.0;;;6.6;90.1
28456;BME280;15682;56.742;38.866;2023-04-03T04:01:47;99400.0;;;6.7;90.1
28456;BME280;15682;56.742;38.866;2023-04-03T04:03:48;99400.0;;;6.7;90.1
28456;BME280;15682;56.742;38.866;2023-04-03T04:05:47;99400.0;;;6.7;90.5
28456;BME280;15682;56.742;38.866;2023-04-03T04:07:47;99400.0;;;6.7;90.5
28456;BME280;15682;56.742;38.866;2023-04-03T04:09:48;99400.0;;;6.7;90.5
28456;BME280;15682;56.742;38.866;2023-04-03T04:11:48;99400.0;;;6.6;90.5
28456;BME280;15682;56.742;38.866;2023-04-03T04:13:48;99400.0;;;6.6;90.5
28456;BME280;15682;56.742;38.866;2023-04-03T04:15:48;99400.0;;;6.6;90.2
28456;BME280;15682;56.742;38.866;2023-04-03T04:17:48;99400.0;;;6.6;90.2
28456;BME280;15682;56.742;38.866;2023-04-03T04:19:48;99400.0;;;6.8;90.2
28456;BME280;15682;56.742;38.866;2023-04-03T04:21:48;99400.0;;;6.8;90.2
28456;BME280;15682;56.742;38.866;2023-04-03T04:23:48;99400.0;;;6.8;90.2
28456;BME280;15682;56.742;38.866;2023-04-03T04:25:49;99400.0;;;6.9;89.6
28456;BME280;15682;56.742;38.866;2023-04-03T04:27:48;99400.0;;;7.0;89.6
28456;BME280;15682;56.742;38.866;2023-04-03T04:29:49;99400.0;;;7.0;89.6
28456;BME280;15682;56.742;38.866;2023-04-03T04:31:49;99400.0;;;7.1;89.1
28456;BME280;15682;56.742;38.866;2023-04-03T04:33:49;99400.0;;;7.1;89.1
28456;BME280;15682;56.742;38.866;2023-04-03T04:35:49;99400.0;;;7.1;89.5
28456;BME280;15682;56.742;38.866;2023-04-03T04:37:49;99410.0;;;7.1;89.5
28456;BME280;15682;56.742;38.866;2023-04-03T04:39:49;99410.0;;;7.1;89.5
28456;BME280;15682;56.742;38.866;2023-04-03T04:41:49;99410.0;;;7.1;89.5
28456;BME280;15682;56.742;38.866;2023-04-03T04:43:49;99410.0;;;7.2;89.5
28456;BME280;15682;56.742;38.866;2023-04-03T04:46:00;99410.0;;;7.2;89.2
28456;BME280;15682;56.742;38.866;2023-04-03T04:47:49;99410.0;;;7.4;89.2
28456;BME280;15682;56.742;38.866;2023-04-03T04:49:49;99410.0;;;7.4;89.2
28456;BME280;15682;56.742;38.866;2023-04-03T04:51:49;99410.0;;;7.4;89.2
28456;BME280;15682;56.742;38.866;2023-04-03T04:53:50;99410.0;;;7.4;89.7
28456;BME280;15682;56.742;38.866;2023-04-03T04:55:50;99410.0;;;7.4;89.4
28456;BME280;15682;56.742;38.866;2023-04-03T04:57:50;99410.0;;;7.2;89.4
28456;BME280;15682;56.742;38.866;2023-04-03T04:59:51;99410.0;;;7.2;89.4
28456;BME280;15682;56.742;38.866;2023-04-03T05:01:50;99410.0;;;7.2;89.4
28456;BME280;15682;56.742;38.866;2023-04-03T05:03:50;99410.0;;;7.2;89.4
28456;BME280;15682;56.742;38.866;2023-04-03T05:05:50;99420.0;;;7.4;89.9
28456;BME280;15682;56.742;38.866;2023-04-03T05:07:50;99420.0;;;7.4;89.9
28456;BME280;15682;56.742;38.866;2023-04-03T05:09:50;99420.0;;;7.4;89.9
28456;BME280;15682;56.742;38.866;2023-04-03T05:11:50;99420.0;;;7.5;89.9
28456;BME280;15682;56.742;38.866;2023-04-03T05:13:51;99420.0;;;7.5;89.0
28456;BME280;15682;56.742;38.866;2023-04-03T05:15:51;99420.0;;;7.5;89.2
28456;BME280;15682;56.742;38.866;2023-04-03T05:17:51;99420.0;;;7.5;89.2
28456;BME280;15682;56.742;38.866;2023-04-03T05:19:51;99420.0;;;7.5;89.2
28456;BME280;15682;56.742;38.866;2023-04-03T05:21:51;99420.0;;;7.5;89.2
28456;BME280;15682;56.742;38.866;2023-04-03T05:23:51;99420.0;;;7.5;89.2
28456;BME280;15682;56.742;38.866;2023-04-03T05:25:51;99420.0;;;7.6;88.7
28456;BME280;15682;56.742;38.866;2023-04-03T05:27:51;99420.0;;;7.7;88.7
28456;BME280;15682;56.742;38.866;2023-04-03T05:29:53;99420.0;;;7.7;88.3
28456;BME280;15682;56.742;38.866;2023-04-03T05:31:51;99420.0;;;7.9;88.3
28456;BME280;15682;56.742;38.866;2023-04-03T05:33:52;99420.0;;;7.9;87.4
28456;BME280;15682;56.742;38.866;2023-04-03T05:35:52;99420.0;;;7.9;87.7
28456;BME280;15682;56.742;38.866;2023-04-03T05:37:52;99420.0;;;7.9;88.3
28456;BME280;15682;56.742;38.866;2023-04-03T05:39:52;99420.0;;;7.9;87.4
28456;BME280;15682;56.742;38.866;2023-04-03T05:41:52;99420.0;;;8.1;87.4
28456;BME280;15682;56.742;38.866;2023-04-03T05:43:52;99430.0;;;8.1;86.5
28456;BME280;15682;56.742;38.866;2023-04-03T05:45:52;99430.0;;;8.1;86.8
28456;BME280;15682;56.742;38.866;2023-04-03T05:47:52;99430.0;;;8.1;86.8
28456;BME280;15682;56.742;38.866;2023-04-03T05:49:52;99430.0;;;8.1;86.8
28456;BME280;15682;56.742;38.866;2023-04-03T05:51:53;99430.0;;;8.4;86.2
28456;BME280;15682;56.742;38.866;2023-04-03T05:53:56;99430.0;;;8.8;85.5
28456;BME280;15682;56.742;38.866;2023-04-03T05:55:53;99430.0;;;8.9;82.7
28456;BME280;15682;56.742;38.866;2023-04-03T05:57:53;99430.0;;;9.1;80.5
28456;BME280;15682;56.742;38.866;2023-04-03T05:59:53;99430.0;;;9.3;81.7
28456;BME280;15682;56.742;38.866;2023-04-03T06:01:53;99430.0;;;9.5;81.7
28456;BME280;15682;56.742;38.866;2023-04-03T06:03:53;99440.0;;;9.5;81.7
28456;BME280;15682;56.742;38.866;2023-04-03T06:05:54;99440.0;;;9.6;81.1
28456;BME280;15682;56.742;38.866;2023-04-03T06:07:54;99440.0;;;9.8;80.2
28456;BME280;15682;56.742;38.866;2023-04-03T06:09:56;99440.0;;;9.8;79.7
28456;BME280;15682;56.742;38.866;2023-04-03T06:11:54;99440.0;;;9.7;79.7
28456;BME280;15682;56.742;38.866;2023-04-03T06:13:54;99440.0;;;9.9;78.9
28456;BME280;15682;56.742;38.866;2023-04-03T06:15:54;99440.0;;;10.0;80.0
28456;BME280;15682;56.742;38.866;2023-04-03T06:17:55;99450.0;;;10.0;80.1
28456;BME280;15682;56.742;38.866;2023-04-03T06:19:55;99450.0;;;9.8;80.8
28456;BME280;15682;56.742;38.866;2023-04-03T06:21:55;99450.0;;;9.6;80.8
28456;BME280;15682;56.742;38.866;2023-04-03T06:23:55;99450.0;;;10.2;80.8
28456;BME280;15682;56.742;38.866;2023-04-03T06:25:55;99450.0;;;10.4;76.7
28456;BME280;15682;56.742;38.866;2023-04-03T06:27:55;99450.0;;;10.3;77.9
28456;BME280;15682;56.742;38.866;2023-04-03T06:29:56;99450.0;;;10.3;79.4
28456;BME280;15682;56.742;38.866;2023-04-03T06:31:56;99450.0;;;10.5;78.2
28456;BME280;15682;56.742;38.866;2023-04-03T06:33:56;99450.0;;;10.3;78.2
28456;BME280;15682;56.742;38.866;2023-04-03T06:35:57;99450.0;;;10.3;79.4
28456;BME280;15682;56.742;38.866;2023-04-03T06:37:57;99450.0;;;10.2;80.1
28456;BME280;15682;56.742;38.866;2023-04-03T06:39:57;99450.0;;;10.2;79.3
28456;BME280;15682;56.742;38.866;2023-04-03T06:41:57;99460.0;;;10.2;79.3
28456;BME280;15682;56.742;38.866;2023-04-03T06:43:57;99460.0;;;10.3;78.7
28456;BME280;15682;56.742;38.866;2023-04-03T06:45:57;99460.0;;;10.4;79.3
28456;BME280;15682;56.742;38.866;2023-04-03T06:47:57;99460.0;;;10.4;79.9
28456;BME280;15682;56.742;38.866;2023-04-03T06:49:58;99460.0;;;10.4;79.0
28456;BME280;15682;56.742;38.866;2023-04-03T06:51:58;99460.0;;;10.3;79.0
28456;BME280;15682;56.742;38.866;2023-04-03T06:53:59;99460.0;;;10.2;78.5
28456;BME280;15682;56.742;38.866;2023-04-03T06:55:58;99460.0;;;10.0;80.0
28456;BME280;15682;56.742;38.866;2023-04-03T06:57:58;99470.0;;;10.0;80.0
28456;BME280;15682;56.742;38.866;2023-04-03T06:59:59;99470.0;;;10.0;80.0
28456;BME280;15682;56.742;38.866;2023-04-03T07:01:59;99470.0;;;9.8;79.4
28456;BME280;15682;56.742;38.866;2023-04-03T07:03:59;99470.0;;;9.8;79.9
28456;BME280;15682;56.742;38.866;2023-04-03T07:05:59;99470.0;;;10.0;79.2
28456;BME280;15682;56.742;38.866;2023-04-03T07:07:59;99470.0;;;10.1;79.2
28456;BME280;15682;56.742;38.866;2023-04-03T07:09:59;99470.0;;;10.2;80.6
28456;BME280;15682;56.742;38.866;2023-04-03T07:12:00;99480.0;;;10.2;78.9
28456;BME280;15682;56.742;38.866;2023-04-03T07:14:00;99480.0;;;10.3;78.2
28456;BME280;15682;56.742;38.866;2023-04-03T07:16:00;99480.0;;;10.5;78.5
28456;BME280;15682;56.742;38.866;2023-04-03T07:18:00;99480.0;;;10.6;77.6
28456;BME280;15682;56.742;38.866;2023-04-03T07:20:00;99480.0;;;10.6;77.0
28456;BME280;15682;56.742;38.866;2023-04-03T07:22:00;99480.0;;;10.8;77.0
28456;BME280;15682;56.742;38.866;2023-04-03T07:24:01;99480.0;;;11.1;76.4
28456;BME280;15682;56.742;38.866;2023-04-03T07:26:01;99480.0;;;11.5;75.5
28456;BME280;15682;56.742;38.866;2023-04-03T07:28:01;99480.0;;;11.6;74.4
28456;BME280;15682;56.742;38.866;2023-04-03T07:30:01;99480.0;;;11.7;74.4
28456;BME280;15682;56.742;38.866;2023-04-03T07:32:02;99480.0;;;11.8;73.4
28456;BME280;15682;56.742;38.866;2023-04-03T07:34:02;99480.0;;;11.6;73.4
28456;BME280;15682;56.742;38.866;2023-04-03T07:36:03;99480.0;;;11.7;74.3
28456;BME280;15682;56.742;38.866;2023-04-03T07:38:02;99480.0;;;12.0;73.5
28456;BME280;15682;56.742;38.866;2023-04-03T07:40:03;99480.0;;;12.2;73.5
28456;BME280;15682;56.742;38.866;2023-04-03T07:42:03;99480.0;;;12.0;72.4
28456;BME280;15682;56.742;38.866;2023-04-03T07:44:03;99480.0;;;12.2;73.0
28456;BME280;15682;56.742;38.866;2023-04-03T07:46:05;99480.0;;;12.2;73.4
28456;BME280;15682;56.742;38.866;2023-04-03T07:48:04;99480.0;;;12.4;73.5
28456;BME280;15682;56.742;38.866;2023-04-03T07:50:05;99480.0;;;12.4;73.0
28456;BME280;15682;56.742;38.866;2023-04-03T07:52:04;99480.0;;;12.6;73.1
28456;BME280;15682;56.742;38.866;2023-04-03T07:54:04;99480.0;;;12.6;74.2
28456;BME280;15682;56.742;38.866;2023-04-03T07:56:05;99480.0;;;12.8;72.1
28456;BME280;15682;56.742;38.866;2023-04-03T07:58:05;99480.0;;;12.8;71.4
28456;BME280;15682;56.742;38.866;2023-04-03T08:00:06;99480.0;;;12.9;71.4
28456;BME280;15682;56.742;38.866;2023-04-03T08:02:05;99480.0;;;12.6;71.4
28456;BME280;15682;56.742;38.866;2023-04-03T08:04:05;99480.0;;;12.7;71.4
28456;BME280;15682;56.742;38.866;2023-04-03T08:06:07;99480.0;;;12.7;72.0
28456;BME280;15682;56.742;38.866;2023-04-03T08:08:07;99480.0;;;12.9;71.5
28456;BME280;15682;56.742;38.866;2023-04-03T08:10:07;99480.0;;;12.8;71.6
28456;BME280;15682;56.742;38.866;2023-04-03T08:12:06;99480.0;;;12.8;70.1
28456;BME280;15682;56.742;38.866;2023-04-03T08:14:07;99480.0;;;12.9;70.7
28456;BME280;15682;56.742;38.866;2023-04-03T08:16:10;99480.0;;;13.1;69.4
28456;BME280;15682;56.742;38.866;2023-04-03T08:18:07;99480.0;;;13.1;68.6
28456;BME280;15682;56.742;38.866;2023-04-03T08:20:10;99480.0;;;13.1;67.5
28456;BME280;15682;56.742;38.866;2023-04-03T08:22:07;99480.0;;;13.0;66.5
28456;BME280;15682;56.742;38.866;2023-04-03T08:24:08;99480.0;;;12.9;66.5
28456;BME280;15682;56.742;38.866;2023-04-03T08:26:09;99480.0;;;13.2;67.3
28456;BME280;15682;56.742;38.866;2023-04-03T08:28:09;99480.0;;;13.2;67.3
28456;BME280;15682;56.742;38.866;2023-04-03T08:30:09;99480.0;;;13.2;67.3
28456;BME280;15682;56.742;38.866;2023-04-03T08:32:09;99480.0;;;13.2;66.8
28456;BME280;15682;56.742;38.866;2023-04-03T08:34:09;99480.0;;;13.5;67.0
28456;BME280;15682;56.742;38.866;2023-04-03T08:36:17;99480.0;;;13.5;66.2
28456;BME280;15682;56.742;38.866;2023-04-03T08:38:10;99480.0;;;13.2;67.5
28456;BME280;15682;56.742;38.866;2023-04-03T08:40:13;99480.0;;;13.1;66.8
28456;BME280;15682;56.742;38.866;2023-04-03T08:42:16;99480.0;;;13.1;66.8
28456;BME280;15682;56.742;38.866;2023-04-03T08:44:17;99480.0;;;13.1;67.1
28456;BME280;15682;56.742;38.866;2023-04-03T08:46:13;99480.0;;;13.4;67.1
28456;BME280;15682;56.742;38.866;2023-04-03T08:48:15;99480.0;;;13.7;67.1
28456;BME280;15682;56.742;38.866;2023-04-03T08:50:14;99480.0;;;13.7;66.3
28456;BME280;15682;56.742;38.866;2023-04-03T08:52:13;99480.0;;;14.1;66.3
28456;BME280;15682;56.742;38.866;2023-04-03T08:54:21;99480.0;;;13.5;65.5
28456;BME280;15682;56.742;38.866;2023-04-03T08:56:14;99480.0;;;13.3;66.3
28456;BME280;15682;56.742;38.866;2023-04-03T08:58:15;99480.0;;;13.6;66.9
28456;BME280;15682;56.742;38.866;2023-04-03T09:00:18;99480.0;;;13.8;66.8
28456;BME280;15682;56.742;38.866;2023-04-03T09:02:24;99480.0;;;14.0;66.6
28456;BME280;15682;56.742;38.866;2023-04-03T09:04:15;99480.0;;;13.7;66.4
28456;BME280;15682;56.742;38.866;2023-04-03T09:06:15;99480.0;;;13.5;66.5
28456;BME280;15682;56.742;38.866;2023-04-03T09:08:21;99480.0;;;13.8;66.5
28456;BME280;15682;56.742;38.866;2023-04-03T09:10:15;99480.0;;;13.6;67.2
28456;BME280;15682;56.742;38.866;2023-04-03T09:12:19;99480.0;;;13.7;66.5
28456;BME280;15682;56.742;38.866;2023-04-03T09:14:21;99480.0;;;13.7;67.1
28456;BME280;15682;56.742;38.866;2023-04-03T09:16:21;99480.0;;;13.7;66.9
28456;BME280;15682;56.742;38.866;2023-04-03T09:18:20;99480.0;;;14.0;66.9
28456;BME280;15682;56.742;38.866;2023-04-03T09:20:21;99480.0;;;14.1;67.0
28456;BME280;15682;56.742;38.866;2023-04-03T09:22:18;99480.0;;;14.5;66.3
28456;BME280;15682;56.742;38.866;2023-04-03T09:24:16;99480.0;;;14.5;64.9
28456;BME280;15682;56.742;38.866;2023-04-03T09:26:18;99480.0;;;14.5;64.2
28456;BME280;15682;56.742;38.866;2023-04-03T09:28:15;99480.0;;;14.5;64.2
28456;BME280;15682;56.742;38.866;2023-04-03T09:30:18;99480.0;;;14.6;62.5
28456;BME280;15682;56.742;38.866;2023-04-03T09:32:21;99480.0;;;14.3;63.3
28456;BME280;15682;56.742;38.866;2023-04-03T09:34:22;99480.0;;;14.2;64.5
28456;BME280;15682;56.742;38.866;2023-04-03T09:36:40;99480.0;;;14.1;63.6
28456;BME280;15682;56.742;38.866;2023-04-03T09:38:21;99480.0;;;14.1;63.6
28456;BME280;15682;56.742;38.866;2023-04-03T09:40:34;99490.0;;;14.1;63.9
28456;BME280;15682;56.742;38.866;2023-04-03T09:42:20;99490.0;;;14.0;63.9
28456;BME280;15682;56.742;38.866;2023-04-03T09:44:21;99490.0;;;14.0;64.5
28456;BME280;15682;56.742;38.866;2023-04-03T09:46:25;99490.0;;;14.2;64.0
28456;BME280;15682;56.742;38.866;2023-04-03T09:48:20;99490.0;;;14.2;63.3
28456;BME280;15682;56.742;38.866;2023-04-03T09:50:21;99490.0;;;14.2;64.3
28456;BME280;15682;56.742;38.866;2023-04-03T09:52:22;99490.0;;;14.2;64.3
28456;BME280;15682;56.742;38.866;2023-04-03T09:54:35;99490.0;;;14.2;64.2
28456;BME280;15682;56.742;38.866;2023-04-03T09:56:23;99490.0;;;14.4;63.5
28456;BME280;15682;56.742;38.866;2023-04-03T09:58:25;99490.0;;;14.4;63.5
28456;BME280;15682;56.742;38.866;2023-04-03T10:00:22;99490.0;;;14.4;63.5
28456;BME280;15682;56.742;38.866;2023-04-03T10:02:28;99490.0;;;14.4;63.6
28456;BME280;15682;56.742;38.866;2023-04-03T10:04:20;99490.0;;;14.4;63.6
28456;BME280;15682;56.742;38.866;2023-04-03T10:06:22;99490.0;;;14.6;63.4
28456;BME280;15682;56.742;38.866;2023-04-03T10:08:23;99490.0;;;14.6;63.3
28456;BME280;15682;56.742;38.866;2023-04-03T10:10:22;99490.0;;;14.6;62.7
28456;BME280;15682;56.742;38.866;2023-04-03T10:12:21;99490.0;;;14.4;62.8
28456;BME280;15682;56.742;38.866;2023-04-03T10:14:21;99490.0;;;14.4;62.8
28456;BME280;15682;56.742;38.866;2023-04-03T10:16:26;99490.0;;;14.6;63.2
28456;BME280;15682;56.742;38.866;2023-04-03T10:18:30;99500.0;;;15.0;62.3
28456;BME280;15682;56.742;38.866;2023-04-03T10:20:30;99500.0;;;14.9;60.7
28456;BME280;15682;56.742;38.866;2023-04-03T10:22:29;99500.0;;;15.0;62.1
28456;BME280;15682;56.742;38.866;2023-04-03T10:24:27;99500.0;;;15.0;61.9
28456;BME280;15682;56.742;38.866;2023-04-03T10:26:31;99500.0;;;15.0;61.8
28456;BME280;15682;56.742;38.866;2023-04-03T10:28:29;99510.0;;;15.1;61.1
28456;BME280;15682;56.742;38.866;2023-04-03T10:30:32;99510.0;;;14.9;60.5
28456;BME280;15682;56.742;38.866;2023-04-03T10:32:38;99510.0;;;14.8;60.5
28456;BME280;15682;56.742;38.866;2023-04-03T10:34:28;99510.0;;;14.8;61.0
28456;BME280;15682;56.742;38.866;2023-04-03T10:36:33;99510.0;;;14.8;61.0
28456;BME280;15682;56.742;38.866;2023-04-03T10:38:31;99510.0;;;14.8;61.0
28456;BME280;15682;56.742;38.866;2023-04-03T10:40:30;99510.0;;;14.8;60.7
28456;BME280;15682;56.742;38.866;2023-04-03T10:42:30;99510.0;;;14.8;62.0
28456;BME280;15682;56.742;38.866;2023-04-03T10:44:32;99510.0;;;14.6;62.0
28456;BME280;15682;56.742;38.866;2023-04-03T10:46:30;99510.0;;;14.5;62.0
28456;BME280;15682;56.742;38.866;2023-04-03T10:48:35;99510.0;;;14.5;63.0
28456;BME280;15682;56.742;38.866;2023-04-03T10:50:34;99510.0;;;14.5;62.3
28456;BME280;15682;56.742;38.866;2023-04-03T10:52:34;99510.0;;;14.6;61.7
28456;BME280;15682;56.742;38.866;2023-04-03T10:54:31;99510.0;;;15.0;62.1
28456;BME280;15682;56.742;38.866;2023-04-03T10:56:31;99510.0;;;15.1;60.3
28456;BME280;15682;56.742;38.866;2023-04-03T10:58:32;99510.0;;;15.1;61.1